Time;durP1;ratioP1;P1;durP2;ratioP2;P2;SDS_P1;SDS_P2;PMS_P1;PMS_P2;Temp;Humidity;BMP_temperature;BMP_pressure;BME280_temperature;BME280_humidity;BME280_pressure;Samples;Min_cycle;Max_cycle;Signal;HPM_P1;HPM_P2
2023/09/13 00:01:01;;;;;;;;;;;20.90;50.10;;;;;;5030955;28;88046;-51
2023/09/13 00:03:26;;;;;;;;;;;20.90;50.00;;;;;;5028672;28;87158;-57
2023/09/13 00:05:52;;;;;;;;;;;20.90;50.10;;;;;;5030657;28;88328;-55
2023/09/13 00:08:17;;;;;;;;;;;20.90;50.10;;;;;;5031214;28;88351;-51
2023/09/13 00:10:46;;;;;;;;;;;20.90;50.10;;;;;;5033720;28;89630;-56
2023/09/13 00:13:12;;;;;;;;;;;20.90;50.10;;;;;;5032036;28;88334;-55
2023/09/13 00:15:40;;;;;;;;;;;20.80;50.00;;;;;;5031537;28;87137;-54
2023/09/13 00:18:05;;;;;;;;;;;20.90;50.00;;;;;;5034569;28;87134;-56
2023/09/13 00:20:31;;;;;;;;;;;20.80;50.00;;;;;;5031724;28;88221;-54
2023/09/13 00:22:57;;;;;;;;;;;20.80;50.00;;;;;;5033292;28;86792;-55
2023/09/13 00:25:22;;;;;;;;;;;20.80;50.00;;;;;;5035255;28;88471;-54
2023/09/13 00:27:48;;;;;;;;;;;20.80;50.00;;;;;;5038005;28;88694;-57
2023/09/13 00:30:13;;;;;;;;;;;20.80;50.00;;;;;;5027912;28;88021;-53
2023/09/13 00:32:39;;;;;;;;;;;20.70;49.90;;;;;;5034858;28;88175;-55
2023/09/13 00:35:04;;;;;;;;;;;20.70;50.00;;;;;;5034078;28;87162;-54
2023/09/13 00:37:30;;;;;;;;;;;20.70;50.00;;;;;;5033225;28;89563;-55
2023/09/13 00:39:55;;;;;;;;;;;20.70;50.00;;;;;;5033112;28;88045;-54
2023/09/13 00:42:21;;;;;;;;;;;20.70;50.00;;;;;;5031537;28;87463;-57
2023/09/13 00:44:46;;;;;;;;;;;20.70;50.00;;;;;;5032780;28;87600;-54
2023/09/13 00:47:12;;;;;;;;;;;20.70;50.00;;;;;;5035306;28;87421;-56
2023/09/13 00:49:38;;;;;;;;;;;20.70;50.00;;;;;;5035299;28;87235;-53
2023/09/13 00:52:04;;;;;;;;;;;20.70;50.00;;;;;;5032856;28;88704;-56
2023/09/13 00:54:30;;;;;;;;;;;20.60;50.00;;;;;;5033171;28;88125;-53
2023/09/13 00:56:56;;;;;;;;;;;20.60;50.00;;;;;;5033107;28;90482;-55
2023/09/13 00:59:22;;;;;;;;;;;20.60;50.00;;;;;;5032267;28;88372;-54
2023/09/13 01:01:47;;;;;;;;;;;20.60;50.00;;;;;;5031865;28;87083;-56
2023/09/13 01:04:13;;;;;;;;;;;20.60;50.00;;;;;;5035956;28;86963;-58
2023/09/13 01:06:39;;;;;;;;;;;20.60;50.10;;;;;;5033365;28;88698;-55
2023/09/13 01:09:04;;;;;;;;;;;20.50;50.00;;;;;;5031654;28;87322;-56
2023/09/13 01:11:30;;;;;;;;;;;20.50;50.00;;;;;;5038392;27;87943;-53
2023/09/13 01:13:55;;;;;;;;;;;20.50;50.00;;;;;;5028817;28;87125;-51
2023/09/13 01:16:24;;;;;;;;;;;20.50;50.00;;;;;;5033707;28;87560;-53
2023/09/13 01:18:55;;;;;;;;;;;20.50;50.00;;;;;;5032078;28;89172;-54
2023/09/13 01:21:39;;;;;;;;;;;20.50;50.10;;;;;;5029997;27;87251;-53
2023/09/13 01:24:16;;;;;;;;;;;20.40;50.00;;;;;;5030925;27;87420;-53
2023/09/13 01:26:58;;;;;;;;;;;20.50;50.70;;;;;;5034126;28;88232;-50
2023/09/13 01:29:25;;;;;;;;;;;20.40;50.20;;;;;;5033970;28;88903;-54
2023/09/13 01:31:51;;;;;;;;;;;20.40;50.10;;;;;;5031814;28;87841;-54
2023/09/13 01:34:16;;;;;;;;;;;20.40;50.10;;;;;;5036278;28;89358;-57
2023/09/13 01:36:42;;;;;;;;;;;20.40;50.10;;;;;;5035177;28;87058;-57
2023/09/13 01:39:07;;;;;;;;;;;20.40;50.10;;;;;;5030149;28;87828;-51
2023/09/13 01:41:36;;;;;;;;;;;20.30;50.10;;;;;;5035188;28;87042;-54
2023/09/13 01:44:02;;;;;;;;;;;20.30;50.10;;;;;;5030444;28;88038;-57
2023/09/13 01:46:42;;;;;;;;;;;20.30;50.70;;;;;;5032736;28;87635;-56
2023/09/13 01:49:09;;;;;;;;;;;20.30;50.10;;;;;;5030890;28;87147;-54
2023/09/13 01:51:34;;;;;;;;;;;20.30;50.10;;;;;;5031898;28;87348;-55
2023/09/13 01:54:00;;;;;;;;;;;20.30;50.10;;;;;;5034435;28;88111;-56
2023/09/13 01:56:25;;;;;;;;;;;20.30;50.10;;;;;;5036210;28;87153;-57
2023/09/13 01:58:51;;;;;;;;;;;20.20;50.10;;;;;;5030997;28;88389;-55
2023/09/13 02:01:17;;;;;;;;;;;20.20;50.00;;;;;;5033871;28;86727;-55
2023/09/13 02:03:43;;;;;;;;;;;20.20;50.00;;;;;;5032503;28;87074;-54
2023/09/13 02:06:08;;;;;;;;;;;20.20;50.00;;;;;;5034952;28;88553;-55
2023/09/13 02:08:34;;;;;;;;;;;20.20;50.00;;;;;;5031132;28;88008;-54
2023/09/13 02:11:00;;;;;;;;;;;20.20;50.10;;;;;;5032032;28;89005;-53
2023/09/13 02:13:25;;;;;;;;;;;20.20;50.00;;;;;;5030488;28;89797;-55
2023/09/13 02:15:51;;;;;;;;;;;20.20;50.10;;;;;;5031707;28;87761;-55
2023/09/13 02:18:17;;;;;;;;;;;20.20;50.10;;;;;;5035557;28;87451;-54
2023/09/13 02:20:42;;;;;;;;;;;20.10;50.00;;;;;;5034196;28;87128;-56
2023/09/13 02:23:08;;;;;;;;;;;20.10;50.10;;;;;;5032365;28;87766;-57
2023/09/13 02:25:36;;;;;;;;;;;20.10;50.00;;;;;;5029803;28;88446;-57
2023/09/13 02:28:03;;;;;;;;;;;20.10;50.00;;;;;;5033958;28;87443;-53
2023/09/13 02:30:29;;;;;;;;;;;20.10;50.10;;;;;;5032747;28;90709;-56
2023/09/13 02:32:55;;;;;;;;;;;20.10;50.00;;;;;;5031032;28;91289;-54
2023/09/13 02:35:20;;;;;;;;;;;20.10;50.00;;;;;;5027471;28;87120;-56
2023/09/13 02:37:46;;;;;;;;;;;20.00;49.90;;;;;;5035474;28;87864;-56
2023/09/13 02:40:11;;;;;;;;;;;20.00;50.00;;;;;;5031152;28;87208;-54
2023/09/13 02:42:37;;;;;;;;;;;20.00;50.00;;;;;;5034482;28;87660;-54
2023/09/13 02:45:03;;;;;;;;;;;20.00;50.60;;;;;;5030678;28;88005;-54
2023/09/13 02:47:28;;;;;;;;;;;20.00;50.00;;;;;;5033009;28;87123;-57
2023/09/13 02:49:54;;;;;;;;;;;20.00;50.00;;;;;;5033908;28;87501;-55
2023/09/13 02:52:30;;;;;;;;;;;19.90;50.00;;;;;;5029487;28;88121;-55
2023/09/13 02:54:56;;;;;;;;;;;19.90;50.00;;;;;;5031114;28;87094;-56
2023/09/13 02:57:21;;;;;;;;;;;20.00;50.00;;;;;;5032720;27;87879;-55
2023/09/13 02:59:47;;;;;;;;;;;19.90;50.00;;;;;;5032321;28;88415;-52
2023/09/13 03:02:12;;;;;;;;;;;19.90;50.00;;;;;;5033020;28;87504;-56
2023/09/13 03:04:38;;;;;;;;;;;19.90;50.10;;;;;;5031222;28;87349;-54
2023/09/13 03:07:03;;;;;;;;;;;19.90;50.10;;;;;;5033870;28;87136;-55
2023/09/13 03:09:29;;;;;;;;;;;19.90;50.00;;;;;;5031638;27;89242;-55
2023/09/13 03:11:54;;;;;;;;;;;19.90;50.00;;;;;;5030721;28;88226;-53
2023/09/13 03:14:20;;;;;;;;;;;19.80;50.00;;;;;;5033203;28;86735;-56
2023/09/13 03:16:45;;;;;;;;;;;19.80;50.00;;;;;;5030487;28;87337;-55
2023/09/13 03:19:11;;;;;;;;;;;19.80;49.50;;;;;;5032484;28;87661;-53
2023/09/13 03:21:36;;;;;;;;;;;19.80;50.00;;;;;;5034076;28;88026;-55
2023/09/13 03:24:04;;;;;;;;;;;19.80;50.00;;;;;;5033096;28;88306;-57
2023/09/13 03:26:31;;;;;;;;;;;19.80;50.00;;;;;;5028876;28;87257;-54
2023/09/13 03:28:56;;;;;;;;;;;19.80;50.00;;;;;;5029773;28;87139;-55
2023/09/13 03:31:22;;;;;;;;;;;19.70;50.00;;;;;;5029046;28;87481;-56
2023/09/13 03:33:49;;;;;;;;;;;19.70;49.90;;;;;;5032433;28;87106;-54
2023/09/13 03:36:15;;;;;;;;;;;19.70;50.00;;;;;;5031730;27;87243;-55
2023/09/13 03:38:41;;;;;;;;;;;19.70;50.10;;;;;;5033602;28;87841;-53
2023/09/13 03:41:07;;;;;;;;;;;19.70;50.00;;;;;;5030778;28;88254;-54
2023/09/13 03:43:32;;;;;;;;;;;19.70;50.10;;;;;;5036454;28;87518;-54
2023/09/13 03:45:58;;;;;;;;;;;19.60;50.00;;;;;;5032106;28;88121;-55
2023/09/13 03:48:24;;;;;;;;;;;19.70;50.10;;;;;;5035334;28;88966;-52
2023/09/13 03:50:49;;;;;;;;;;;19.60;50.00;;;;;;5033824;28;90775;-53
2023/09/13 03:53:15;;;;;;;;;;;19.60;50.00;;;;;;5035459;28;87183;-57
2023/09/13 03:55:40;;;;;;;;;;;19.60;50.00;;;;;;5035343;28;87686;-54
2023/09/13 03:58:06;;;;;;;;;;;19.60;50.00;;;;;;5032894;28;89113;-56
2023/09/13 04:00:33;;;;;;;;;;;19.60;49.50;;;;;;5033861;28;87219;-54
2023/09/13 04:02:58;;;;;;;;;;;19.60;50.10;;;;;;5036782;28;86723;-54
2023/09/13 04:05:24;;;;;;;;;;;19.50;50.00;;;;;;5037667;28;87929;-56
2023/09/13 04:07:49;;;;;;;;;;;19.50;50.00;;;;;;5035391;28;88067;-51
2023/09/13 04:10:15;;;;;;;;;;;19.50;50.10;;;;;;5034950;28;89282;-54
2023/09/13 04:12:40;;;;;;;;;;;19.50;50.10;;;;;;5034020;28;87062;-56
2023/09/13 04:15:06;;;;;;;;;;;19.50;50.70;;;;;;5034246;28;87311;-54
2023/09/13 04:17:32;;;;;;;;;;;19.50;50.10;;;;;;5033310;28;88543;-55
2023/09/13 04:19:57;;;;;;;;;;;19.40;50.10;;;;;;5036517;28;87119;-54
2023/09/13 04:22:23;;;;;;;;;;;19.40;50.00;;;;;;5034675;28;87535;-56
2023/09/13 04:24:48;;;;;;;;;;;19.40;50.10;;;;;;5034677;28;88218;-54
2023/09/13 04:27:20;;;;;;;;;;;19.40;50.10;;;;;;5034756;28;87778;-54
2023/09/13 04:29:45;;;;;;;;;;;19.40;50.10;;;;;;5031546;28;88264;-57
2023/09/13 04:32:11;;;;;;;;;;;19.40;50.10;;;;;;5033485;28;87105;-56
2023/09/13 04:34:37;;;;;;;;;;;19.40;50.10;;;;;;5035784;28;88017;-56
2023/09/13 04:37:06;;;;;;;;;;;19.30;50.10;;;;;;5034129;28;88580;-55
2023/09/13 04:39:32;;;;;;;;;;;19.30;49.60;;;;;;5034352;28;87111;-52
2023/09/13 04:41:58;;;;;;;;;;;19.30;50.10;;;;;;5036035;28;87969;-57
2023/09/13 04:44:26;;;;;;;;;;;19.30;50.10;;;;;;5031512;28;88119;-53
2023/09/13 04:46:53;;;;;;;;;;;19.30;50.20;;;;;;5033225;28;87300;-54
2023/09/13 04:49:18;;;;;;;;;;;19.30;50.20;;;;;;5032172;28;88144;-57
2023/09/13 04:51:44;;;;;;;;;;;19.20;50.10;;;;;;5030942;28;86454;-56
2023/09/13 04:54:10;;;;;;;;;;;19.20;50.20;;;;;;5032458;28;87972;-55
2023/09/13 04:56:35;;;;;;;;;;;19.20;50.10;;;;;;5033498;28;87846;-57
2023/09/13 04:59:01;;;;;;;;;;;19.20;50.20;;;;;;5032050;28;88301;-56
2023/09/13 05:01:26;;;;;;;;;;;19.20;50.20;;;;;;5033881;28;88786;-54
2023/09/13 05:03:56;;;;;;;;;;;19.20;50.20;;;;;;5031847;28;87229;-55
2023/09/13 05:06:22;;;;;;;;;;;19.20;50.20;;;;;;5033398;28;86990;-55
2023/09/13 05:08:49;;;;;;;;;;;19.20;50.30;;;;;;5030357;28;88565;-55
2023/09/13 05:11:14;;;;;;;;;;;19.10;50.10;;;;;;5031187;28;87188;-52
2023/09/13 05:13:40;;;;;;;;;;;19.10;50.30;;;;;;5031577;28;87604;-57
2023/09/13 05:16:05;;;;;;;;;;;19.10;50.30;;;;;;5033067;28;87459;-55
2023/09/13 05:18:31;;;;;;;;;;;19.20;50.30;;;;;;5028743;28;88232;-57
2023/09/13 05:20:56;;;;;;;;;;;19.10;50.30;;;;;;5028929;28;90344;-54
2023/09/13 05:23:22;;;;;;;;;;;19.10;50.30;;;;;;5032480;28;89779;-54
2023/09/13 05:25:50;;;;;;;;;;;19.10;50.30;;;;;;5033875;28;87121;-52
2023/09/13 05:28:16;;;;;;;;;;;19.10;50.30;;;;;;5034321;28;89477;-54
2023/09/13 05:30:45;;;;;;;;;;;19.10;50.90;;;;;;5033134;28;88106;-55
2023/09/13 05:33:11;;;;;;;;;;;19.10;50.30;;;;;;5032683;28;87714;-51
2023/09/13 05:35:36;;;;;;;;;;;19.10;50.40;;;;;;5032690;28;88474;-57
2023/09/13 05:38:02;;;;;;;;;;;19.00;50.40;;;;;;5030339;28;87244;-56
2023/09/13 05:40:28;;;;;;;;;;;19.10;50.40;;;;;;5031494;28;87714;-56
2023/09/13 05:42:53;;;;;;;;;;;19.10;50.40;;;;;;5032602;28;87428;-55
2023/09/13 05:45:19;;;;;;;;;;;19.00;50.40;;;;;;5035050;28;87805;-53
2023/09/13 05:47:47;;;;;;;;;;;19.10;50.50;;;;;;5029931;28;88390;-57
2023/09/13 05:50:12;;;;;;;;;;;19.00;50.50;;;;;;5032171;28;88770;-56
2023/09/13 05:52:39;;;;;;;;;;;19.10;50.50;;;;;;5037584;28;87122;-54
2023/09/13 05:55:04;;;;;;;;;;;19.10;50.50;;;;;;5031534;28;89470;-57
2023/09/13 05:57:30;;;;;;;;;;;19.10;50.50;;;;;;5027397;28;87171;-52
2023/09/13 05:59:55;;;;;;;;;;;19.00;50.60;;;;;;5034801;28;87614;-53
2023/09/13 06:02:21;;;;;;;;;;;19.00;50.50;;;;;;5031939;28;88188;-57
2023/09/13 06:04:46;;;;;;;;;;;19.00;50.70;;;;;;5030606;28;87396;-52
2023/09/13 06:07:12;;;;;;;;;;;19.00;50.60;;;;;;5027297;28;87373;-55
2023/09/13 06:09:37;;;;;;;;;;;19.00;50.70;;;;;;5032478;28;88491;-55
2023/09/13 06:12:03;;;;;;;;;;;19.00;50.70;;;;;;5030690;28;88063;-57
2023/09/13 06:14:29;;;;;;;;;;;19.00;50.70;;;;;;5034346;28;88625;-56
2023/09/13 06:16:54;;;;;;;;;;;19.00;50.80;;;;;;5029479;28;87051;-55
2023/09/13 06:19:20;;;;;;;;;;;19.00;50.80;;;;;;5032064;28;87672;-53
2023/09/13 06:21:45;;;;;;;;;;;19.00;50.80;;;;;;5030837;28;88163;-54
2023/09/13 06:24:11;;;;;;;;;;;19.00;50.80;;;;;;5030439;28;88757;-51
2023/09/13 06:26:36;;;;;;;;;;;19.00;50.80;;;;;;5032178;28;88100;-56
2023/09/13 06:29:02;;;;;;;;;;;19.00;50.70;;;;;;5035343;28;87678;-55
2023/09/13 06:31:27;;;;;;;;;;;19.00;50.80;;;;;;5028741;28;87352;-55
2023/09/13 06:33:53;;;;;;;;;;;19.00;50.90;;;;;;5033955;27;90269;-53
2023/09/13 06:36:19;;;;;;;;;;;19.00;50.90;;;;;;5031021;28;88040;-56
2023/09/13 06:38:44;;;;;;;;;;;19.00;50.80;;;;;;5033761;28;88617;-54
2023/09/13 06:41:10;;;;;;;;;;;19.00;50.80;;;;;;5030864;28;87981;-56
2023/09/13 06:43:36;;;;;;;;;;;19.00;50.80;;;;;;5025025;28;88071;-55
2023/09/13 06:46:02;;;;;;;;;;;19.00;50.90;;;;;;5033076;27;87565;-57
2023/09/13 06:48:28;;;;;;;;;;;19.00;50.90;;;;;;5033535;28;88337;-55
2023/09/13 06:50:53;;;;;;;;;;;19.00;51.00;;;;;;5024989;28;88953;-56
2023/09/13 06:53:19;;;;;;;;;;;19.00;50.90;;;;;;5028508;28;88858;-54
2023/09/13 06:55:45;;;;;;;;;;;19.00;50.90;;;;;;5037015;28;88198;-56
2023/09/13 06:58:10;;;;;;;;;;;19.00;51.00;;;;;;5031375;27;87769;-55
2023/09/13 07:00:36;;;;;;;;;;;19.00;51.00;;;;;;5029969;28;88487;-54
2023/09/13 07:03:04;;;;;;;;;;;19.00;51.00;;;;;;5031068;28;87055;-55
2023/09/13 07:05:29;;;;;;;;;;;19.00;50.90;;;;;;5032694;28;88814;-55
2023/09/13 07:07:54;;;;;;;;;;;19.00;51.00;;;;;;5031359;28;89028;-57
2023/09/13 07:10:20;;;;;;;;;;;19.00;51.00;;;;;;5024514;28;87841;-56
2023/09/13 07:12:46;;;;;;;;;;;19.00;51.00;;;;;;5030419;28;87609;-54
2023/09/13 07:15:11;;;;;;;;;;;19.00;51.00;;;;;;5032644;28;88686;-56
2023/09/13 07:17:37;;;;;;;;;;;19.00;51.10;;;;;;5032235;28;86551;-56
2023/09/13 07:20:05;;;;;;;;;;;19.00;51.00;;;;;;5029557;28;88352;-55
2023/09/13 07:22:30;;;;;;;;;;;19.00;51.10;;;;;;5032039;28;87101;-51
2023/09/13 07:24:56;;;;;;;;;;;19.00;51.10;;;;;;5033629;28;88120;-54
2023/09/13 07:27:22;;;;;;;;;;;19.00;51.10;;;;;;5030391;28;88491;-57
2023/09/13 07:29:47;;;;;;;;;;;19.00;51.10;;;;;;5029973;28;87269;-53
2023/09/13 07:32:13;;;;;;;;;;;19.00;51.20;;;;;;5029174;28;88514;-56
2023/09/13 07:34:38;;;;;;;;;;;19.00;51.20;;;;;;5031264;28;88228;-56
2023/09/13 07:37:04;;;;;;;;;;;19.00;51.20;;;;;;5026900;28;87092;-54
2023/09/13 07:39:29;;;;;;;;;;;19.00;51.10;;;;;;5033499;28;87429;-53
2023/09/13 07:41:55;;;;;;;;;;;19.00;51.20;;;;;;5033227;28;86374;-50
2023/09/13 07:44:20;;;;;;;;;;;19.00;51.20;;;;;;5032330;27;87720;-56
2023/09/13 07:46:46;;;;;;;;;;;19.00;51.30;;;;;;5028927;28;88553;-56
2023/09/13 07:49:11;;;;;;;;;;;19.00;51.30;;;;;;5027816;28;88037;-50
2023/09/13 07:51:37;;;;;;;;;;;19.00;51.30;;;;;;5033256;28;88265;-52
2023/09/13 07:54:07;;;;;;;;;;;19.00;51.40;;;;;;5030172;28;88221;-54
2023/09/13 07:56:34;;;;;;;;;;;19.00;51.40;;;;;;5030517;28;87936;-55
2023/09/13 07:58:59;;;;;;;;;;;19.00;51.40;;;;;;5029545;28;88909;-52
2023/09/13 08:01:25;;;;;;;;;;;19.00;51.40;;;;;;5033398;28;88417;-52
2023/09/13 08:03:51;;;;;;;;;;;19.00;51.40;;;;;;5026978;28;88898;-53
2023/09/13 08:06:16;;;;;;;;;;;19.00;51.40;;;;;;5027159;28;88586;-53
2023/09/13 08:08:42;;;;;;;;;;;19.00;51.40;;;;;;5032464;28;87056;-53
2023/09/13 08:11:07;;;;;;;;;;;19.00;51.40;;;;;;5028345;28;87601;-56
2023/09/13 08:13:32;;;;;;;;;;;19.00;51.40;;;;;;5026689;28;89223;-58
2023/09/13 08:15:58;;;;;;;;;;;19.00;51.50;;;;;;5031160;28;87171;-53
2023/09/13 08:18:23;;;;;;;;;;;19.00;51.50;;;;;;5029286;28;87588;-55
2023/09/13 08:20:50;;;;;;;;;;;19.00;51.50;;;;;;5030408;28;88462;-55
2023/09/13 08:23:16;;;;;;;;;;;19.00;51.50;;;;;;5031660;28;87235;-54
2023/09/13 08:25:41;;;;;;;;;;;19.10;51.60;;;;;;5028814;28;87486;-57
2023/09/13 08:28:07;;;;;;;;;;;19.10;51.60;;;;;;5029540;28;87165;-54
2023/09/13 08:30:32;;;;;;;;;;;19.00;51.60;;;;;;5031673;27;87884;-52
2023/09/13 08:32:58;;;;;;;;;;;19.10;51.60;;;;;;5031940;28;88604;-54
2023/09/13 08:35:23;;;;;;;;;;;19.10;51.50;;;;;;5032835;28;87726;-54
2023/09/13 08:37:49;;;;;;;;;;;19.10;51.60;;;;;;5035444;28;88219;-54
2023/09/13 08:40:14;;;;;;;;;;;19.10;51.70;;;;;;5032417;28;87772;-54
2023/09/13 08:42:43;;;;;;;;;;;19.10;51.60;;;;;;5032240;28;87271;-57
2023/09/13 08:45:09;;;;;;;;;;;19.10;51.60;;;;;;5034173;28;88113;-53
2023/09/13 08:47:38;;;;;;;;;;;19.10;51.70;;;;;;5034052;28;87001;-54
2023/09/13 08:50:05;;;;;;;;;;;19.10;51.60;;;;;;5030054;28;89400;-56
2023/09/13 08:52:31;;;;;;;;;;;19.10;51.50;;;;;;5031889;28;91232;-54
2023/09/13 08:54:57;;;;;;;;;;;19.10;51.50;;;;;;5033943;28;86414;-52
2023/09/13 08:57:26;;;;;;;;;;;19.20;51.50;;;;;;5033139;28;87244;-52
2023/09/13 08:59:52;;;;;;;;;;;19.10;51.50;;;;;;5028514;28;89586;-57
2023/09/13 09:02:18;;;;;;;;;;;19.10;51.50;;;;;;5030568;28;88158;-53
2023/09/13 09:04:45;;;;;;;;;;;19.20;52.20;;;;;;5034131;28;90103;-55
2023/09/13 09:07:11;;;;;;;;;;;19.20;51.50;;;;;;5030744;28;87315;-54
2023/09/13 09:09:36;;;;;;;;;;;19.20;51.50;;;;;;5031003;28;87698;-53
2023/09/13 09:12:03;;;;;;;;;;;19.20;51.50;;;;;;5033686;28;88293;-53
2023/09/13 09:14:33;;;;;;;;;;;19.20;51.50;;;;;;5035552;28;87249;-56
2023/09/13 09:16:59;;;;;;;;;;;19.20;51.50;;;;;;5030037;28;87494;-56
2023/09/13 09:19:25;;;;;;;;;;;19.20;51.50;;;;;;5030800;28;87379;-55
2023/09/13 09:21:50;;;;;;;;;;;19.20;51.50;;;;;;5035633;28;87095;-54
2023/09/13 09:24:16;;;;;;;;;;;19.20;51.50;;;;;;5035075;28;88874;-53
2023/09/13 09:26:44;;;;;;;;;;;19.20;51.50;;;;;;5032634;28;88933;-53
2023/09/13 09:29:13;;;;;;;;;;;19.30;51.50;;;;;;5029292;28;88575;-53
2023/09/13 09:31:39;;;;;;;;;;;19.30;51.50;;;;;;5035345;28;88556;-55
2023/09/13 09:34:05;;;;;;;;;;;19.30;51.60;;;;;;5034971;28;87293;-55
2023/09/13 09:36:34;;;;;;;;;;;19.30;52.10;;;;;;5030927;28;89203;-54
2023/09/13 09:39:01;;;;;;;;;;;19.40;51.50;;;;;;5030193;28;87606;-55
2023/09/13 09:41:30;;;;;;;;;;;19.40;51.50;;;;;;5033260;28;87429;-52
2023/09/13 09:43:56;;;;;;;;;;;19.40;51.50;;;;;;5034115;27;87998;-53
2023/09/13 09:46:22;;;;;;;;;;;19.40;51.50;;;;;;5034036;28;87442;-55
2023/09/13 09:48:48;;;;;;;;;;;19.40;51.40;;;;;;5032129;28;87061;-55
2023/09/13 09:51:13;;;;;;;;;;;19.40;51.50;;;;;;5034435;28;89188;-56
2023/09/13 09:53:39;;;;;;;;;;;19.40;51.50;;;;;;5029450;28;87916;-54
2023/09/13 09:56:04;;;;;;;;;;;19.40;51.50;;;;;;5032635;28;87338;-52
2023/09/13 09:58:30;;;;;;;;;;;19.50;51.50;;;;;;5032517;28;88625;-52
2023/09/13 10:00:55;;;;;;;;;;;19.50;51.50;;;;;;5034995;28;87915;-56
2023/09/13 10:03:21;;;;;;;;;;;19.50;51.50;;;;;;5030031;28;87604;-54
2023/09/13 10:05:54;;;;;;;;;;;19.50;51.50;;;;;;5031881;28;88544;-52
2023/09/13 10:08:19;;;;;;;;;;;19.50;51.50;;;;;;5033786;28;86457;-52
2023/09/13 10:10:45;;;;;;;;;;;19.50;51.40;;;;;;5035060;28;88128;-54
2023/09/13 10:13:13;;;;;;;;;;;19.50;51.40;;;;;;5030846;28;87763;-53
2023/09/13 10:15:39;;;;;;;;;;;19.50;51.50;;;;;;5028167;28;88037;-56
2023/09/13 10:18:05;;;;;;;;;;;19.60;51.50;;;;;;5031659;28;88223;-53
2023/09/13 10:20:33;;;;;;;;;;;19.60;51.50;;;;;;5032136;28;87521;-53
2023/09/13 10:23:00;;;;;;;;;;;19.60;51.50;;;;;;5028045;28;87967;-54
2023/09/13 10:25:28;;;;;;;;;;;19.60;51.40;;;;;;5031098;28;87311;-55
2023/09/13 10:27:54;;;;;;;;;;;19.60;51.40;;;;;;5034614;28;87195;-53
2023/09/13 10:30:22;;;;;;;;;;;19.70;51.50;;;;;;5029610;28;87487;-56
2023/09/13 10:32:50;;;;;;;;;;;19.70;51.40;;;;;;5033863;28;89083;-53
2023/09/13 10:35:16;;;;;;;;;;;19.70;51.40;;;;;;5023380;28;88354;-54
2023/09/13 10:37:44;;;;;;;;;;;19.70;51.40;;;;;;5029967;28;88768;-53
2023/09/13 10:40:17;;;;;;;;;;;19.80;51.60;;;;;;5026934;28;88237;-55
2023/09/13 10:42:43;;;;;;;;;;;19.80;51.50;;;;;;5028755;28;87504;-54
2023/09/13 10:45:10;;;;;;;;;;;19.80;51.50;;;;;;5032298;28;88410;-52
2023/09/13 10:47:37;;;;;;;;;;;19.80;51.30;;;;;;5031796;28;87264;-54
2023/09/13 10:50:03;;;;;;;;;;;19.80;51.40;;;;;;5028876;27;89334;-56
2023/09/13 10:52:30;;;;;;;;;;;19.90;51.40;;;;;;5031107;28;90528;-56
2023/09/13 10:54:58;;;;;;;;;;;19.90;51.30;;;;;;5033434;28;87786;-53
2023/09/13 10:57:23;;;;;;;;;;;19.90;51.40;;;;;;5029507;28;87546;-55
2023/09/13 10:59:50;;;;;;;;;;;19.90;51.30;;;;;;5029666;28;88190;-52
2023/09/13 11:02:16;;;;;;;;;;;19.90;51.30;;;;;;5029097;28;87022;-55
2023/09/13 11:04:41;;;;;;;;;;;19.90;51.30;;;;;;5030730;28;88488;-53
2023/09/13 11:07:07;;;;;;;;;;;20.00;51.30;;;;;;5031063;28;88792;-55
2023/09/13 11:09:32;;;;;;;;;;;20.00;51.30;;;;;;5029079;28;87572;-55
2023/09/13 11:11:58;;;;;;;;;;;20.00;51.30;;;;;;5031106;28;88641;-51
2023/09/13 11:14:28;;;;;;;;;;;20.00;51.30;;;;;;5037076;28;87126;-54
2023/09/13 11:16:54;;;;;;;;;;;20.10;51.30;;;;;;5026744;28;90218;-52
2023/09/13 11:19:27;;;;;;;;;;;20.10;51.30;;;;;;5028166;28;87109;-56
2023/09/13 11:21:57;;;;;;;;;;;20.10;51.30;;;;;;5031572;28;87500;-55
2023/09/13 11:24:43;;;;;;;;;;;20.10;51.20;;;;;;5035314;28;89163;-55
2023/09/13 11:27:16;;;;;;;;;;;20.10;51.20;;;;;;5029614;28;88768;-52
2023/09/13 11:29:46;;;;;;;;;;;20.20;51.30;;;;;;5028839;27;88550;-56
2023/09/13 11:32:16;;;;;;;;;;;20.20;51.20;;;;;;5030348;28;89391;-53
2023/09/13 11:34:41;;;;;;;;;;;20.20;51.30;;;;;;5033737;28;87120;-57
2023/09/13 11:37:07;;;;;;;;;;;20.30;51.30;;;;;;5028284;28;87462;-54
2023/09/13 11:39:33;;;;;;;;;;;20.20;51.20;;;;;;5029081;28;87789;-54
2023/09/13 11:41:59;;;;;;;;;;;20.30;51.20;;;;;;5031714;28;88140;-54
2023/09/13 11:44:25;;;;;;;;;;;20.30;51.20;;;;;;5029092;28;88179;-51
2023/09/13 11:46:51;;;;;;;;;;;20.30;51.20;;;;;;5026033;28;86485;-54
2023/09/13 11:49:21;;;;;;;;;;;20.40;51.20;;;;;;5033147;28;88755;-56
2023/09/13 11:51:55;;;;;;;;;;;20.40;51.10;;;;;;5031475;28;89762;-56
2023/09/13 11:54:21;;;;;;;;;;;20.40;51.20;;;;;;5031764;27;89177;-56
2023/09/13 11:56:54;;;;;;;;;;;20.40;51.10;;;;;;5030982;28;88722;-55
2023/09/13 11:59:25;;;;;;;;;;;20.40;51.00;;;;;;5034151;28;87238;-53
2023/09/13 12:01:52;;;;;;;;;;;20.50;51.10;;;;;;5029626;28;88181;-55
2023/09/13 12:04:20;;;;;;;;;;;20.50;51.00;;;;;;5026675;28;88537;-54
2023/09/13 12:06:50;;;;;;;;;;;20.50;51.00;;;;;;5033100;28;88193;-52
2023/09/13 12:09:16;;;;;;;;;;;20.50;51.00;;;;;;5033218;28;88932;-53
2023/09/13 12:11:54;;;;;;;;;;;20.60;51.00;;;;;;5032458;28;88185;-51
2023/09/13 12:14:23;;;;;;;;;;;20.60;51.00;;;;;;5035196;28;87262;-54
2023/09/13 12:16:49;;;;;;;;;;;20.60;50.90;;;;;;5032938;28;89351;-53
2023/09/13 12:19:15;;;;;;;;;;;20.60;51.00;;;;;;5033754;28;89042;-54
2023/09/13 12:21:44;;;;;;;;;;;20.70;50.90;;;;;;5033842;28;87985;-55
2023/09/13 12:24:12;;;;;;;;;;;20.70;50.90;;;;;;5028492;28;90193;-53
2023/09/13 12:26:38;;;;;;;;;;;20.70;50.80;;;;;;5032639;28;87161;-51
2023/09/13 12:29:04;;;;;;;;;;;20.70;50.80;;;;;;5036671;28;87463;-52
2023/09/13 12:31:30;;;;;;;;;;;20.70;50.80;;;;;;5031859;28;88557;-54
2023/09/13 12:33:56;;;;;;;;;;;20.80;50.80;;;;;;5029166;28;87095;-55
2023/09/13 12:36:22;;;;;;;;;;;20.80;50.80;;;;;;5037292;28;87631;-54
2023/09/13 12:38:48;;;;;;;;;;;20.80;50.70;;;;;;5033546;28;89737;-55
2023/09/13 12:41:17;;;;;;;;;;;20.80;50.80;;;;;;5029364;28;87831;-52
2023/09/13 12:43:43;;;;;;;;;;;20.90;50.80;;;;;;5035936;28;88064;-52
2023/09/13 12:46:11;;;;;;;;;;;20.90;50.80;;;;;;5035137;28;87023;-54
2023/09/13 12:48:37;;;;;;;;;;;20.90;50.80;;;;;;5030865;28;87620;-54
2023/09/13 12:51:03;;;;;;;;;;;20.90;50.70;;;;;;5030439;28;88647;-56
2023/09/13 12:53:29;;;;;;;;;;;21.00;50.70;;;;;;5032874;28;86935;-52
2023/09/13 12:55:55;;;;;;;;;;;21.00;50.70;;;;;;5030416;28;87947;-56
2023/09/13 12:58:21;;;;;;;;;;;21.00;50.70;;;;;;5029238;28;88254;-54
2023/09/13 13:00:53;;;;;;;;;;;21.00;50.60;;;;;;5033529;28;86400;-55
2023/09/13 13:03:24;;;;;;;;;;;21.10;50.60;;;;;;5038342;28;87256;-54
2023/09/13 13:05:51;;;;;;;;;;;21.10;50.60;;;;;;5034678;28;87229;-54
2023/09/13 13:08:17;;;;;;;;;;;21.10;50.60;;;;;;5028437;28;88074;-54
2023/09/13 13:10:59;;;;;;;;;;;21.20;50.60;;;;;;5028241;28;89321;-54
2023/09/13 13:13:38;;;;;;;;;;;21.20;50.60;;;;;;5033418;28;87127;-56
2023/09/13 13:16:17;;;;;;;;;;;21.10;50.50;;;;;;5028358;27;89113;-50
2023/09/13 13:18:45;;;;;;;;;;;21.20;50.50;;;;;;5033130;28;89248;-54
2023/09/13 13:21:14;;;;;;;;;;;21.20;50.50;;;;;;5032120;28;87118;-53
2023/09/13 13:23:42;;;;;;;;;;;21.30;50.60;;;;;;5036054;28;87665;-54
2023/09/13 13:26:08;;;;;;;;;;;21.30;50.50;;;;;;5034051;28;87339;-54
2023/09/13 13:28:33;;;;;;;;;;;21.30;50.50;;;;;;5031532;28;87089;-56
2023/09/13 13:30:59;;;;;;;;;;;21.30;50.50;;;;;;5033345;28;88356;-55
2023/09/13 13:33:24;;;;;;;;;;;21.40;50.50;;;;;;5033760;28;88188;-55
2023/09/13 13:35:51;;;;;;;;;;;21.40;50.50;;;;;;5031098;28;88605;-54
2023/09/13 13:38:16;;;;;;;;;;;21.40;50.40;;;;;;5031089;28;88279;-55
2023/09/13 13:40:42;;;;;;;;;;;21.50;50.50;;;;;;5034556;28;87679;-55
2023/09/13 13:43:07;;;;;;;;;;;21.50;50.40;;;;;;5028719;28;87945;-53
2023/09/13 13:45:33;;;;;;;;;;;21.50;50.40;;;;;;5029932;28;89500;-54
2023/09/13 13:47:58;;;;;;;;;;;21.50;50.20;;;;;;5033668;28;87532;-54
2023/09/13 13:50:24;;;;;;;;;;;21.60;50.30;;;;;;5033704;28;87415;-52
2023/09/13 13:52:50;;;;;;;;;;;21.60;50.30;;;;;;5034752;28;88836;-51
2023/09/13 13:55:15;;;;;;;;;;;21.60;50.30;;;;;;5027957;27;89467;-55
2023/09/13 13:57:42;;;;;;;;;;;21.60;50.30;;;;;;5030879;28;89058;-56
2023/09/13 14:00:09;;;;;;;;;;;21.60;50.70;;;;;;5033166;28;87123;-54
2023/09/13 14:02:36;;;;;;;;;;;21.60;50.20;;;;;;5031546;28;89636;-53
2023/09/13 14:05:05;;;;;;;;;;;21.60;50.20;;;;;;5027397;28;88663;-55
2023/09/13 14:07:30;;;;;;;;;;;21.70;50.20;;;;;;5034535;28;87111;-56
2023/09/13 14:09:56;;;;;;;;;;;21.70;50.30;;;;;;5035850;27;88289;-54
2023/09/13 14:12:21;;;;;;;;;;;21.70;50.30;;;;;;5028673;28;87225;-55